createdAt,value
2023-12-15T00:00:23.408Z,11.50
2023-12-15T00:02:50.238Z,11.60
2023-12-15T00:05:17.373Z,11.70
2023-12-15T00:07:44.200Z,11.60
2023-12-15T00:10:11.068Z,11.70
2023-12-15T00:12:37.805Z,11.70
2023-12-15T00:15:05.084Z,11.70
2023-12-15T00:17:32.087Z,11.80
2023-12-15T00:19:59.106Z,11.80
2023-12-15T00:22:26.021Z,12.10
2023-12-15T00:24:52.885Z,11.70
2023-12-15T00:27:19.650Z,11.70
2023-12-15T00:29:46.463Z,11.70
2023-12-15T00:32:13.270Z,11.60
2023-12-15T00:34:40.168Z,11.60
2023-12-15T00:37:06.928Z,11.60
2023-12-15T00:39:39.999Z,11.60
2023-12-15T00:42:07.037Z,11.70
2023-12-15T00:44:34.667Z,11.70
2023-12-15T00:47:01.800Z,11.70
2023-12-15T00:49:28.827Z,11.70
2023-12-15T00:51:56.195Z,11.70
2023-12-15T00:54:23.073Z,11.70
2023-12-15T00:56:50.353Z,11.70
2023-12-15T00:59:17.949Z,11.80
2023-12-15T01:01:44.884Z,11.80
2023-12-15T01:04:12.032Z,11.80
2023-12-15T01:06:39.023Z,11.90
2023-12-15T01:09:06.560Z,11.90
2023-12-15T01:11:33.523Z,11.90
2023-12-15T01:14:00.507Z,11.90
2023-12-15T01:16:27.304Z,12.00
2023-12-15T01:18:54.132Z,11.90
2023-12-15T01:21:20.971Z,11.80
2023-12-15T01:23:47.922Z,12.90
2023-12-15T01:26:14.739Z,11.80
2023-12-15T01:28:41.537Z,11.90
2023-12-15T01:31:08.343Z,11.90
2023-12-15T01:33:35.168Z,11.80
2023-12-15T01:36:01.986Z,12.70
2023-12-15T01:38:28.780Z,11.80
2023-12-15T01:40:55.657Z,11.90
2023-12-15T01:43:22.635Z,11.90
2023-12-15T01:45:55.505Z,11.90
2023-12-15T01:48:31.510Z,11.80
2023-12-15T01:50:58.406Z,11.90
2023-12-15T01:53:25.253Z,11.90
2023-12-15T01:55:52.097Z,11.90
2023-12-15T01:58:18.969Z,11.80
2023-12-15T02:00:49.186Z,11.90
2023-12-15T02:03:18.897Z,11.80
2023-12-15T02:05:45.862Z,11.90
2023-12-15T02:08:12.760Z,11.80
2023-12-15T02:10:39.907Z,11.80
2023-12-15T02:13:07.508Z,12.60
2023-12-15T02:15:34.915Z,11.80
2023-12-15T02:18:02.146Z,11.90
2023-12-15T02:20:29.028Z,11.80
2023-12-15T02:22:58.392Z,11.80
2023-12-15T02:25:25.558Z,11.70
2023-12-15T02:27:52.378Z,11.60
2023-12-15T02:30:19.219Z,11.60
2023-12-15T02:32:46.323Z,12.00
2023-12-15T02:35:15.396Z,11.60
2023-12-15T02:37:42.270Z,11.50
2023-12-15T02:40:09.597Z,11.50
2023-12-15T02:42:36.416Z,11.70
2023-12-15T02:45:03.426Z,11.70
2023-12-15T02:47:30.750Z,11.70
2023-12-15T02:49:57.684Z,11.70
2023-12-15T02:52:24.531Z,11.60
2023-12-15T02:54:51.332Z,11.60
2023-12-15T02:57:18.109Z,12.40
2023-12-15T02:59:44.879Z,11.70
2023-12-15T03:02:11.684Z,11.70
2023-12-15T03:04:38.471Z,11.80
2023-12-15T03:07:05.322Z,11.70
2023-12-15T03:09:32.101Z,11.90
2023-12-15T03:11:58.916Z,11.70
2023-12-15T03:14:25.799Z,11.70
2023-12-15T03:16:52.656Z,11.80
2023-12-15T03:19:19.568Z,12.40
2023-12-15T03:21:46.369Z,12.70
2023-12-15T03:24:13.196Z,11.80
2023-12-15T03:26:39.979Z,11.50
2023-12-15T03:29:06.817Z,11.80
2023-12-15T03:31:33.591Z,11.70
2023-12-15T03:34:00.430Z,11.70
2023-12-15T03:36:27.189Z,11.70
2023-12-15T03:38:54.004Z,11.70
2023-12-15T03:41:20.821Z,11.80
2023-12-15T03:43:47.572Z,11.90
2023-12-15T03:46:14.358Z,11.80
2023-12-15T03:48:41.185Z,11.90
2023-12-15T03:51:08.097Z,11.90
2023-12-15T03:53:34.932Z,11.90
2023-12-15T03:56:01.683Z,11.90
2023-12-15T03:58:28.538Z,11.90
2023-12-15T04:00:55.318Z,11.70
2023-12-15T04:03:23.313Z,11.90
2023-12-15T04:05:50.228Z,11.90
2023-12-15T04:08:17.253Z,11.80
2023-12-15T04:10:44.136Z,12.30
2023-12-15T04:13:10.967Z,11.70
2023-12-15T04:15:39.173Z,11.70
2023-12-15T04:18:06.424Z,12.10
2023-12-15T04:20:33.403Z,11.80
2023-12-15T04:23:00.263Z,11.90
2023-12-15T04:25:27.879Z,11.90
2023-12-15T04:27:54.691Z,11.80
2023-12-15T04:30:21.569Z,11.80
2023-12-15T04:32:48.443Z,11.80
2023-12-15T04:35:15.255Z,12.90
2023-12-15T04:37:47.799Z,11.90
2023-12-15T04:40:14.808Z,11.90
2023-12-15T04:42:42.311Z,11.90
2023-12-15T04:45:09.802Z,11.80
2023-12-15T04:47:37.393Z,12.00
2023-12-15T04:50:05.370Z,12.20
2023-12-15T04:52:32.229Z,12.00
2023-12-15T04:54:59.427Z,12.00
2023-12-15T04:57:26.186Z,12.00
2023-12-15T04:59:52.955Z,12.00
2023-12-15T05:02:20.000Z,12.10
2023-12-15T05:04:46.822Z,12.00
2023-12-15T05:07:13.593Z,11.80
2023-12-15T05:09:40.428Z,12.00
2023-12-15T05:12:09.533Z,12.00
2023-12-15T05:14:37.751Z,12.00
2023-12-15T05:17:05.003Z,12.00
2023-12-15T05:19:32.065Z,11.90
2023-12-15T05:21:59.159Z,12.00
2023-12-15T05:24:26.233Z,12.00
2023-12-15T05:26:53.055Z,12.00
2023-12-15T05:29:19.997Z,11.90
2023-12-15T05:31:46.884Z,11.90
2023-12-15T05:34:13.697Z,11.90
2023-12-15T05:36:41.477Z,12.10
2023-12-15T05:39:08.490Z,11.90
2023-12-15T05:41:35.509Z,11.90
2023-12-15T05:44:02.354Z,12.30
2023-12-15T05:46:29.160Z,11.90
2023-12-15T05:48:56.398Z,12.00
2023-12-15T05:51:23.391Z,11.90
2023-12-15T05:53:55.713Z,11.90
2023-12-15T05:56:25.270Z,11.90
2023-12-15T05:58:52.184Z,11.90
2023-12-15T06:01:19.124Z,11.90
2023-12-15T06:03:46.106Z,11.90
2023-12-15T06:06:13.488Z,11.80
2023-12-15T06:08:40.720Z,11.80
2023-12-15T06:11:07.587Z,11.80
2023-12-15T06:13:34.477Z,11.80
2023-12-15T06:16:01.316Z,11.70
2023-12-15T06:18:28.178Z,11.70
2023-12-15T06:20:55.087Z,11.80
2023-12-15T06:23:22.598Z,11.80
2023-12-15T06:25:49.511Z,11.80
2023-12-15T06:28:16.248Z,11.90
2023-12-15T06:30:43.114Z,11.80
2023-12-15T06:33:10.024Z,11.80
2023-12-15T06:35:36.875Z,11.90
2023-12-15T06:38:03.833Z,11.90
2023-12-15T06:40:30.723Z,11.90
2023-12-15T06:42:57.597Z,11.90
2023-12-15T06:45:24.364Z,11.90
2023-12-15T06:47:51.260Z,11.80
2023-12-15T06:50:18.164Z,11.90
2023-12-15T06:52:45.975Z,11.90
2023-12-15T06:55:12.808Z,11.90
2023-12-15T06:57:39.732Z,11.80
2023-12-15T07:00:08.120Z,11.90
2023-12-15T07:02:36.089Z,10.80
2023-12-15T07:05:03.184Z,11.90
2023-12-15T07:07:30.094Z,12.90
2023-12-15T07:09:57.026Z,12.40
2023-12-15T07:12:23.804Z,12.10
2023-12-15T07:14:50.589Z,12.00
2023-12-15T07:17:17.421Z,12.70
2023-12-15T07:19:44.290Z,12.00
2023-12-15T07:22:11.042Z,12.00
2023-12-15T07:24:37.890Z,11.90
2023-12-15T07:27:05.622Z,12.10
2023-12-15T07:29:32.430Z,11.90
2023-12-15T07:31:59.333Z,11.90
2023-12-15T07:34:26.234Z,11.90
2023-12-15T07:36:53.056Z,11.90
2023-12-15T07:39:23.001Z,12.00
2023-12-15T07:41:50.223Z,11.90
2023-12-15T07:44:17.599Z,12.00
2023-12-15T07:46:45.102Z,12.00
2023-12-15T07:49:11.984Z,11.90
2023-12-15T07:51:38.890Z,11.80
2023-12-15T07:54:05.857Z,11.90
2023-12-15T07:56:32.887Z,12.00
2023-12-15T07:58:59.691Z,11.90
2023-12-15T08:01:26.619Z,12.00
2023-12-15T08:03:53.500Z,12.00
2023-12-15T08:06:21.145Z,12.00
2023-12-15T08:08:48.874Z,11.90
2023-12-15T08:11:16.255Z,12.00
2023-12-15T08:13:43.689Z,11.90
2023-12-15T08:16:14.219Z,12.00
2023-12-15T08:18:43.124Z,11.90
2023-12-15T08:21:11.565Z,12.00
2023-12-15T08:23:38.555Z,12.00
2023-12-15T08:26:05.677Z,12.00
2023-12-15T08:28:32.585Z,12.10
2023-12-15T08:31:00.144Z,12.10
2023-12-15T08:33:28.892Z,12.00
2023-12-15T08:35:55.895Z,11.90
2023-12-15T08:38:22.833Z,12.00
2023-12-15T08:40:49.701Z,12.00
2023-12-15T08:43:16.475Z,12.10
2023-12-15T08:45:43.285Z,12.10
2023-12-15T08:48:10.239Z,12.00
2023-12-15T08:50:37.229Z,12.20
2023-12-15T08:53:04.138Z,12.20
2023-12-15T08:55:31.008Z,12.20
2023-12-15T08:57:57.960Z,12.30
2023-12-15T09:00:24.885Z,12.30
2023-12-15T09:02:54.155Z,12.30
2023-12-15T09:05:38.986Z,12.40
2023-12-15T09:08:12.523Z,12.50
2023-12-15T09:10:44.890Z,12.60
2023-12-15T09:13:13.036Z,12.50
2023-12-15T09:15:40.036Z,12.50
2023-12-15T09:18:10.316Z,12.40
2023-12-15T09:20:38.346Z,12.50
2023-12-15T09:23:10.342Z,12.50
2023-12-15T09:25:37.543Z,12.60
2023-12-15T09:28:06.250Z,12.60
2023-12-15T09:30:33.952Z,12.70
2023-12-15T09:33:01.349Z,12.60
2023-12-15T09:35:28.418Z,12.50
2023-12-15T09:37:55.265Z,12.70
2023-12-15T09:40:24.603Z,12.70
2023-12-15T09:42:51.674Z,12.70
2023-12-15T09:45:19.416Z,12.90
2023-12-15T09:47:48.288Z,12.90
2023-12-15T09:50:18.564Z,12.80
2023-12-15T09:52:47.129Z,12.90
2023-12-15T09:55:13.930Z,12.90
2023-12-15T09:57:41.843Z,13.00
2023-12-15T10:00:09.128Z,13.00
2023-12-15T10:02:42.265Z,13.10
2023-12-15T10:05:09.560Z,13.00
2023-12-15T10:07:36.477Z,13.10
2023-12-15T10:10:03.535Z,13.20
2023-12-15T10:12:31.966Z,13.30
2023-12-15T10:14:58.778Z,13.30
2023-12-15T10:17:26.099Z,13.20
2023-12-15T10:20:11.654Z,13.20
2023-12-15T10:22:41.488Z,13.40
2023-12-15T10:25:21.020Z,13.30
2023-12-15T10:27:51.826Z,13.30
2023-12-15T10:30:19.643Z,13.40
2023-12-15T10:32:47.264Z,13.30
2023-12-15T10:35:14.616Z,13.40
2023-12-15T10:37:43.251Z,13.70
2023-12-15T10:40:10.708Z,13.40
2023-12-15T10:42:38.929Z,13.50
2023-12-15T10:45:07.174Z,13.40
2023-12-15T10:47:34.589Z,13.60
2023-12-15T10:50:02.963Z,13.60
2023-12-15T10:52:33.520Z,13.50
2023-12-15T10:55:04.420Z,13.70
2023-12-15T10:57:34.115Z,13.80
2023-12-15T11:00:06.126Z,13.70
2023-12-15T11:02:35.763Z,13.80
2023-12-15T11:05:03.658Z,13.70
2023-12-15T11:07:31.633Z,13.80
2023-12-15T11:10:03.488Z,13.90
2023-12-15T11:12:38.560Z,13.70
2023-12-15T11:15:08.652Z,13.80
2023-12-15T11:17:44.348Z,13.80
2023-12-15T11:20:24.167Z,13.80
2023-12-15T11:23:08.980Z,13.90
2023-12-15T11:25:53.172Z,13.80
2023-12-15T11:28:21.768Z,13.80
2023-12-15T11:30:54.099Z,13.90
2023-12-15T11:33:35.805Z,13.90
2023-12-15T11:36:07.989Z,14.00
2023-12-15T11:38:36.778Z,14.10
2023-12-15T11:41:04.376Z,14.10
2023-12-15T11:43:32.681Z,14.20
2023-12-15T11:45:59.986Z,14.20
2023-12-15T11:48:27.489Z,14.30
2023-12-15T11:50:54.391Z,13.80
2023-12-15T11:53:21.395Z,14.30
2023-12-15T11:55:51.580Z,14.40
2023-12-15T11:58:23.084Z,14.40
2023-12-15T12:00:50.053Z,14.40
2023-12-15T12:03:17.326Z,14.50
2023-12-15T12:05:55.954Z,14.50
2023-12-15T12:08:24.194Z,14.50
2023-12-15T12:11:01.019Z,14.70
2023-12-15T12:13:37.033Z,15.30
2023-12-15T12:16:05.010Z,14.60
2023-12-15T12:18:32.823Z,14.50
2023-12-15T12:21:03.981Z,14.50
2023-12-15T12:23:41.647Z,15.30
2023-12-15T12:26:13.197Z,14.30
2023-12-15T12:28:41.632Z,14.30
2023-12-15T12:31:08.670Z,14.40
2023-12-15T12:33:35.626Z,14.30
2023-12-15T12:36:02.668Z,14.30
2023-12-15T12:38:29.585Z,14.30
2023-12-15T12:40:56.456Z,14.30
2023-12-15T12:43:23.825Z,14.30
2023-12-15T12:45:50.755Z,14.30
2023-12-15T12:48:17.700Z,14.30
2023-12-15T12:50:44.716Z,15.10
2023-12-15T12:53:12.581Z,14.10
2023-12-15T12:55:39.451Z,14.20
2023-12-15T12:58:06.962Z,14.20
2023-12-15T13:00:33.826Z,14.80
2023-12-15T13:03:00.783Z,14.20
2023-12-15T13:05:27.602Z,14.30
2023-12-15T13:07:54.360Z,14.70
2023-12-15T13:10:22.467Z,14.50
2023-12-15T13:12:56.259Z,14.20
2023-12-15T13:15:23.680Z,14.30
2023-12-15T13:17:51.558Z,14.30
2023-12-15T13:20:19.524Z,14.30
2023-12-15T13:22:48.815Z,14.40
2023-12-15T13:25:16.706Z,14.40
2023-12-15T13:27:43.659Z,14.40
2023-12-15T13:30:11.652Z,14.30
2023-12-15T13:32:40.120Z,14.30
2023-12-15T13:35:08.331Z,14.20
2023-12-15T13:37:35.634Z,14.30
2023-12-15T13:40:04.964Z,14.20
2023-12-15T13:42:32.170Z,14.30
2023-12-15T13:44:59.039Z,14.50
2023-12-15T13:47:26.793Z,14.10
2023-12-15T13:49:53.782Z,14.20
2023-12-15T13:52:20.723Z,14.20
2023-12-15T13:54:47.775Z,14.20
2023-12-15T13:57:14.820Z,13.90
2023-12-15T13:59:41.630Z,14.70
2023-12-15T14:02:08.602Z,13.80
2023-12-15T14:04:35.502Z,13.80
2023-12-15T14:07:02.404Z,13.90
2023-12-15T14:09:29.610Z,13.80
2023-12-15T14:11:57.176Z,13.90
2023-12-15T14:14:24.525Z,13.80
2023-12-15T14:16:51.421Z,13.80
2023-12-15T14:19:19.611Z,13.80
2023-12-15T14:21:47.600Z,13.70
2023-12-15T14:24:19.314Z,13.70
2023-12-15T14:26:47.023Z,13.60
2023-12-15T14:29:14.311Z,13.80
2023-12-15T14:31:41.202Z,13.80
2023-12-15T14:34:09.224Z,13.70
2023-12-15T14:36:36.835Z,13.60
2023-12-15T14:39:07.039Z,13.60
2023-12-15T14:41:36.141Z,13.50
2023-12-15T14:44:04.972Z,14.60
2023-12-15T14:46:32.209Z,13.50
2023-12-15T14:48:59.362Z,13.60
2023-12-15T14:51:26.699Z,13.40
2023-12-15T14:53:54.301Z,13.40
2023-12-15T14:56:24.639Z,13.40
2023-12-15T14:58:51.481Z,13.60
2023-12-15T15:01:21.536Z,13.40
2023-12-15T15:03:50.328Z,13.40
2023-12-15T15:06:26.616Z,13.40
2023-12-15T15:08:59.666Z,14.00
2023-12-15T15:11:27.115Z,13.40
2023-12-15T15:13:54.132Z,13.40
2023-12-15T15:16:21.165Z,13.30
2023-12-15T15:18:48.141Z,13.30
2023-12-15T15:21:15.159Z,13.40
2023-12-15T15:23:42.122Z,13.40
2023-12-15T15:26:11.880Z,13.40
2023-12-15T15:28:38.964Z,14.00
2023-12-15T15:31:06.175Z,13.50
2023-12-15T15:33:33.428Z,13.30
2023-12-15T15:36:01.241Z,13.40
2023-12-15T15:38:28.167Z,13.30
2023-12-15T15:40:55.017Z,13.40
2023-12-15T15:43:22.546Z,13.40
2023-12-15T15:45:50.499Z,13.40
2023-12-15T15:48:17.357Z,13.20
2023-12-15T15:50:46.132Z,13.30
2023-12-15T15:53:13.180Z,13.20
2023-12-15T15:55:39.932Z,13.30
2023-12-15T15:58:06.814Z,13.30
2023-12-15T16:00:34.117Z,13.30
2023-12-15T16:03:02.250Z,13.60
2023-12-15T16:05:29.123Z,13.30
2023-12-15T16:07:55.911Z,13.30
2023-12-15T16:10:22.729Z,13.20
2023-12-15T16:12:49.585Z,13.30
2023-12-15T16:15:17.676Z,13.30
2023-12-15T16:17:44.497Z,13.30
2023-12-15T16:20:11.706Z,14.10
2023-12-15T16:22:40.524Z,13.30
2023-12-15T16:25:09.129Z,13.30
2023-12-15T16:27:37.059Z,13.40
2023-12-15T16:30:05.541Z,13.40
2023-12-15T16:32:32.810Z,13.40
2023-12-15T16:34:59.696Z,13.50
2023-12-15T16:37:26.471Z,13.60
2023-12-15T16:39:55.447Z,13.60
2023-12-15T16:42:22.210Z,13.70
2023-12-15T16:44:51.065Z,14.30
2023-12-15T16:47:18.694Z,13.70
2023-12-15T16:49:45.882Z,13.60
2023-12-15T16:52:13.469Z,13.60
2023-12-15T16:54:40.445Z,14.30
2023-12-15T16:57:07.311Z,13.60
2023-12-15T16:59:41.686Z,14.00
2023-12-15T17:02:09.561Z,13.40
2023-12-15T17:04:37.104Z,13.40
2023-12-15T17:07:04.128Z,13.30
2023-12-15T17:09:32.090Z,13.50
2023-12-15T17:12:00.379Z,13.50
2023-12-15T17:14:27.699Z,14.00
2023-12-15T17:16:54.649Z,13.40
2023-12-15T17:19:21.674Z,13.60
2023-12-15T17:21:48.556Z,13.50
2023-12-15T17:24:15.909Z,13.50
2023-12-15T17:26:42.616Z,13.40
2023-12-15T17:29:09.362Z,13.40
2023-12-15T17:31:36.170Z,13.40
2023-12-15T17:34:04.340Z,13.40
2023-12-15T17:36:31.096Z,13.50
2023-12-15T17:38:57.883Z,13.30
2023-12-15T17:41:24.715Z,13.30
2023-12-15T17:43:51.556Z,13.20
2023-12-15T17:46:27.158Z,13.20
2023-12-15T17:48:54.122Z,13.30
2023-12-15T17:51:21.240Z,13.30
2023-12-15T17:53:48.093Z,13.20
2023-12-15T17:56:14.907Z,13.20
2023-12-15T17:58:42.645Z,13.40
2023-12-15T18:01:10.900Z,13.50
2023-12-15T18:03:37.832Z,13.30
2023-12-15T18:06:04.880Z,13.40
2023-12-15T18:08:31.722Z,13.30
2023-12-15T18:10:58.533Z,13.40
2023-12-15T18:13:25.716Z,13.20
2023-12-15T18:15:52.726Z,13.20
2023-12-15T18:18:19.927Z,13.20
2023-12-15T18:20:47.401Z,13.20
2023-12-15T18:23:15.056Z,13.10
2023-12-15T18:25:42.622Z,13.80
2023-12-15T18:28:15.952Z,13.30
2023-12-15T18:30:49.790Z,13.10
2023-12-15T18:33:16.727Z,13.20
2023-12-15T18:35:43.708Z,13.20
2023-12-15T18:38:11.087Z,13.10
2023-12-15T18:40:37.924Z,13.20
2023-12-15T18:43:05.085Z,13.20
2023-12-15T18:45:31.848Z,13.40
2023-12-15T18:47:58.753Z,13.20
2023-12-15T18:50:25.678Z,13.10
2023-12-15T18:52:52.485Z,14.00
2023-12-15T18:55:19.484Z,13.40
2023-12-15T18:57:51.988Z,13.10
2023-12-15T19:00:22.414Z,13.20
2023-12-15T19:02:51.323Z,13.20
2023-12-15T19:05:18.551Z,13.60
2023-12-15T19:07:46.982Z,13.30
2023-12-15T19:10:14.847Z,13.20
2023-12-15T19:12:46.090Z,13.10
2023-12-15T19:15:13.879Z,13.10
2023-12-15T19:17:40.945Z,13.20
2023-12-15T19:20:09.014Z,13.10
2023-12-15T19:22:36.167Z,13.20
2023-12-15T19:25:03.315Z,13.10
2023-12-15T19:27:30.292Z,13.20
2023-12-15T19:29:57.082Z,13.10
2023-12-15T19:32:24.254Z,13.90
2023-12-15T19:34:51.983Z,13.40
2023-12-15T19:37:19.239Z,13.30
2023-12-15T19:39:46.252Z,13.20
2023-12-15T19:42:13.008Z,13.40
2023-12-15T19:44:42.590Z,13.10
2023-12-15T19:47:09.777Z,13.30
2023-12-15T19:49:36.692Z,11.70
2023-12-15T19:52:04.486Z,13.30
2023-12-15T19:54:31.827Z,13.30
2023-12-15T19:56:58.619Z,13.20
2023-12-15T19:59:26.886Z,13.30
2023-12-15T20:01:57.255Z,13.30
2023-12-15T20:04:24.597Z,13.30
2023-12-15T20:06:51.646Z,13.40
2023-12-15T20:09:19.359Z,13.60
2023-12-15T20:11:46.271Z,13.30
2023-12-15T20:14:13.996Z,13.30
2023-12-15T20:16:41.759Z,13.30
2023-12-15T20:19:10.512Z,13.30
2023-12-15T20:21:37.761Z,13.60
2023-12-15T20:24:04.953Z,13.30
2023-12-15T20:26:31.675Z,13.30
2023-12-15T20:29:01.225Z,13.50
2023-12-15T20:31:28.507Z,13.10
2023-12-15T20:33:59.464Z,13.10
2023-12-15T20:36:26.292Z,13.00
2023-12-15T20:38:53.754Z,13.10
2023-12-15T20:41:21.454Z,13.00
2023-12-15T20:43:49.086Z,13.20
2023-12-15T20:46:16.963Z,13.30
2023-12-15T20:48:44.449Z,13.20
2023-12-15T20:51:20.871Z,13.80
2023-12-15T20:53:47.725Z,13.30
2023-12-15T20:56:27.736Z,13.30
2023-12-15T20:58:55.046Z,13.30
2023-12-15T21:01:22.256Z,13.30
2023-12-15T21:03:52.819Z,13.30
2023-12-15T21:06:20.442Z,13.30
2023-12-15T21:08:52.954Z,13.40
2023-12-15T21:11:20.063Z,13.50
2023-12-15T21:13:47.103Z,13.40
2023-12-15T21:16:24.438Z,13.40
2023-12-15T21:18:51.445Z,13.40
2023-12-15T21:21:27.096Z,13.40
2023-12-15T21:23:53.906Z,13.30
2023-12-15T21:26:20.768Z,13.30
2023-12-15T21:28:47.530Z,13.40
2023-12-15T21:31:14.438Z,13.30
2023-12-15T21:33:41.488Z,13.40
2023-12-15T21:36:11.182Z,13.30
2023-12-15T21:38:39.034Z,13.40
2023-12-15T21:41:06.080Z,13.70
2023-12-15T21:43:32.947Z,13.40
2023-12-15T21:46:00.019Z,13.50
2023-12-15T21:48:27.020Z,13.40
2023-12-15T21:50:53.968Z,13.30
2023-12-15T21:53:20.777Z,13.60
2023-12-15T21:55:47.649Z,13.20
2023-12-15T21:58:14.482Z,13.20
2023-12-15T22:00:41.487Z,13.20
2023-12-15T22:03:09.257Z,13.80
2023-12-15T22:05:36.271Z,13.10
2023-12-15T22:08:03.108Z,13.20
2023-12-15T22:10:32.750Z,13.30
2023-12-15T22:12:59.524Z,13.10
2023-12-15T22:15:26.910Z,13.20
2023-12-15T22:17:56.890Z,13.20
2023-12-15T22:20:23.764Z,13.20
2023-12-15T22:22:50.540Z,13.10
2023-12-15T22:25:17.366Z,13.20
2023-12-15T22:27:44.183Z,13.20
2023-12-15T22:30:13.322Z,13.10
2023-12-15T22:32:40.407Z,13.20
2023-12-15T22:35:08.492Z,14.10
2023-12-15T22:37:36.427Z,13.30
2023-12-15T22:40:05.322Z,13.20
2023-12-15T22:42:32.506Z,13.20
2023-12-15T22:44:59.338Z,13.00
2023-12-15T22:47:26.175Z,13.10
2023-12-15T22:49:53.790Z,13.40
2023-12-15T22:52:20.831Z,13.50
2023-12-15T22:54:49.007Z,13.10
2023-12-15T22:57:16.017Z,13.00
2023-12-15T22:59:43.203Z,13.10
2023-12-15T23:02:10.261Z,13.10
2023-12-15T23:04:37.258Z,13.10
2023-12-15T23:07:05.570Z,13.10
2023-12-15T23:09:32.930Z,13.20
2023-12-15T23:11:59.895Z,13.10
2023-12-15T23:14:27.750Z,13.10
2023-12-15T23:16:54.650Z,13.10
2023-12-15T23:19:21.690Z,13.10
2023-12-15T23:21:48.708Z,13.30
2023-12-15T23:24:15.924Z,13.80
2023-12-15T23:26:42.723Z,14.00
2023-12-15T23:29:10.542Z,13.30
2023-12-15T23:31:37.594Z,13.10
2023-12-15T23:34:04.588Z,13.10
2023-12-15T23:36:31.688Z,13.10
2023-12-15T23:38:58.990Z,13.10
2023-12-15T23:41:25.905Z,13.10
2023-12-15T23:43:53.155Z,13.50
2023-12-15T23:46:20.003Z,13.10
2023-12-15T23:48:46.931Z,13.10
2023-12-15T23:51:14.583Z,13.90
2023-12-15T23:53:42.259Z,13.30
2023-12-15T23:56:09.321Z,13.20
2023-12-15T23:58:36.082Z,13.20
